sensor_id;sensor_type;location;lat;lon;timestamp;P1;durP1;ratioP1;P2;durP2;ratioP2
65759;SDS011;52496;51.082;5.066;2022-07-29T00:00:20;9.63;;;4.10;;
65759;SDS011;52496;51.082;5.066;2022-07-29T00:02:51;11.40;;;3.42;;
65759;SDS011;52496;51.082;5.066;2022-07-29T00:05:22;7.07;;;3.35;;
65759;SDS011;52496;51.082;5.066;2022-07-29T00:07:52;7.55;;;3.00;;
65759;SDS011;52496;51.082;5.066;2022-07-29T00:10:23;6.45;;;2.95;;
65759;SDS011;52496;51.082;5.066;2022-07-29T00:12:53;5.50;;;3.78;;
65759;SDS011;52496;51.082;5.066;2022-07-29T00:15:24;8.07;;;3.08;;
65759;SDS011;52496;51.082;5.066;2022-07-29T00:17:54;6.85;;;3.20;;
65759;SDS011;52496;51.082;5.066;2022-07-29T00:20:25;8.07;;;3.65;;
65759;SDS011;52496;51.082;5.066;2022-07-29T00:22:55;6.63;;;3.50;;
65759;SDS011;52496;51.082;5.066;2022-07-29T00:25:26;10.63;;;3.63;;
65759;SDS011;52496;51.082;5.066;2022-07-29T00:27:57;7.07;;;3.70;;
65759;SDS011;52496;51.082;5.066;2022-07-29T00:30:27;6.40;;;3.30;;
65759;SDS011;52496;51.082;5.066;2022-07-29T00:32:57;8.90;;;3.78;;
65759;SDS011;52496;51.082;5.066;2022-07-29T00:35:28;6.57;;;3.35;;
65759;SDS011;52496;51.082;5.066;2022-07-29T00:38:15;7.88;;;3.60;;
65759;SDS011;52496;51.082;5.066;2022-07-29T00:40:48;7.32;;;3.35;;
65759;SDS011;52496;51.082;5.066;2022-07-29T00:43:18;6.65;;;3.28;;
65759;SDS011;52496;51.082;5.066;2022-07-29T00:45:49;7.88;;;3.00;;
65759;SDS011;52496;51.082;5.066;2022-07-29T00:48:19;7.45;;;3.78;;
65759;SDS011;52496;51.082;5.066;2022-07-29T00:50:50;5.78;;;3.70;;
65759;SDS011;52496;51.082;5.066;2022-07-29T00:53:20;5.82;;;3.10;;
65759;SDS011;52496;51.082;5.066;2022-07-29T00:55:52;7.05;;;3.17;;
65759;SDS011;52496;51.082;5.066;2022-07-29T00:58:24;8.82;;;3.70;;
65759;SDS011;52496;51.082;5.066;2022-07-29T01:00:57;7.38;;;3.60;;
65759;SDS011;52496;51.082;5.066;2022-07-29T01:03:28;5.03;;;3.08;;
65759;SDS011;52496;51.082;5.066;2022-07-29T01:05:58;7.55;;;3.60;;
65759;SDS011;52496;51.082;5.066;2022-07-29T01:08:29;6.75;;;3.95;;
65759;SDS011;52496;51.082;5.066;2022-07-29T01:11:02;5.82;;;3.00;;
65759;SDS011;52496;51.082;5.066;2022-07-29T01:13:32;6.57;;;3.47;;
65759;SDS011;52496;51.082;5.066;2022-07-29T01:16:13;7.65;;;3.80;;
65759;SDS011;52496;51.082;5.066;2022-07-29T01:18:51;6.60;;;3.65;;
65759;SDS011;52496;51.082;5.066;2022-07-29T01:24:38;6.13;;;3.22;;
65759;SDS011;52496;51.082;5.066;2022-07-29T01:30:00;6.47;;;3.67;;
65759;SDS011;52496;51.082;5.066;2022-07-29T01:32:33;5.75;;;3.28;;
65759;SDS011;52496;51.082;5.066;2022-07-29T01:35:19;11.27;;;3.70;;
65759;SDS011;52496;51.082;5.066;2022-07-29T01:37:55;8.20;;;3.78;;
65759;SDS011;52496;51.082;5.066;2022-07-29T01:40:49;8.27;;;3.60;;
65759;SDS011;52496;51.082;5.066;2022-07-29T01:43:23;6.90;;;3.75;;
65759;SDS011;52496;51.082;5.066;2022-07-29T01:46:01;6.43;;;3.08;;
65759;SDS011;52496;51.082;5.066;2022-07-29T01:48:40;7.20;;;3.67;;
65759;SDS011;52496;51.082;5.066;2022-07-29T01:51:19;6.88;;;3.90;;
65759;SDS011;52496;51.082;5.066;2022-07-29T01:53:55;6.80;;;3.38;;
65759;SDS011;52496;51.082;5.066;2022-07-29T01:56:32;9.00;;;3.42;;
65759;SDS011;52496;51.082;5.066;2022-07-29T01:59:05;7.45;;;3.50;;
65759;SDS011;52496;51.082;5.066;2022-07-29T02:01:39;9.70;;;4.30;;
65759;SDS011;52496;51.082;5.066;2022-07-29T02:04:12;9.63;;;4.00;;
65759;SDS011;52496;51.082;5.066;2022-07-29T02:06:47;8.40;;;4.13;;
65759;SDS011;52496;51.082;5.066;2022-07-29T02:09:21;7.70;;;3.28;;
65759;SDS011;52496;51.082;5.066;2022-07-29T02:11:55;9.05;;;3.78;;
65759;SDS011;52496;51.082;5.066;2022-07-29T02:14:30;6.68;;;4.28;;
65759;SDS011;52496;51.082;5.066;2022-07-29T02:17:03;9.45;;;3.85;;
65759;SDS011;52496;51.082;5.066;2022-07-29T02:19:34;6.43;;;3.65;;
65759;SDS011;52496;51.082;5.066;2022-07-29T02:22:08;7.60;;;3.85;;
65759;SDS011;52496;51.082;5.066;2022-07-29T02:24:39;7.00;;;3.17;;
65759;SDS011;52496;51.082;5.066;2022-07-29T02:27:12;6.95;;;3.65;;
65759;SDS011;52496;51.082;5.066;2022-07-29T02:29:45;9.98;;;3.85;;
65759;SDS011;52496;51.082;5.066;2022-07-29T02:32:17;10.10;;;3.83;;
65759;SDS011;52496;51.082;5.066;2022-07-29T02:34:49;9.02;;;4.20;;
65759;SDS011;52496;51.082;5.066;2022-07-29T02:37:21;10.20;;;4.70;;
65759;SDS011;52496;51.082;5.066;2022-07-29T02:39:53;13.05;;;4.72;;
65759;SDS011;52496;51.082;5.066;2022-07-29T02:42:26;6.45;;;4.05;;
65759;SDS011;52496;51.082;5.066;2022-07-29T02:44:57;7.97;;;4.22;;
65759;SDS011;52496;51.082;5.066;2022-07-29T02:47:32;7.13;;;3.85;;
65759;SDS011;52496;51.082;5.066;2022-07-29T02:50:11;8.15;;;4.10;;
65759;SDS011;52496;51.082;5.066;2022-07-29T02:52:56;6.28;;;3.85;;
65759;SDS011;52496;51.082;5.066;2022-07-29T02:55:34;7.57;;;4.57;;
65759;SDS011;52496;51.082;5.066;2022-07-29T02:58:39;10.25;;;4.35;;
65759;SDS011;52496;51.082;5.066;2022-07-29T03:01:16;8.93;;;4.50;;
65759;SDS011;52496;51.082;5.066;2022-07-29T03:03:51;6.95;;;4.30;;
65759;SDS011;52496;51.082;5.066;2022-07-29T03:06:24;8.95;;;3.72;;
65759;SDS011;52496;51.082;5.066;2022-07-29T03:08:57;7.28;;;4.55;;
65759;SDS011;52496;51.082;5.066;2022-07-29T03:11:28;7.82;;;4.22;;
65759;SDS011;52496;51.082;5.066;2022-07-29T03:14:00;7.38;;;3.45;;
65759;SDS011;52496;51.082;5.066;2022-07-29T03:16:31;9.05;;;4.50;;
65759;SDS011;52496;51.082;5.066;2022-07-29T03:19:03;10.15;;;3.97;;
65759;SDS011;52496;51.082;5.066;2022-07-29T03:21:34;8.60;;;4.07;;
65759;SDS011;52496;51.082;5.066;2022-07-29T03:24:05;10.38;;;4.10;;
65759;SDS011;52496;51.082;5.066;2022-07-29T03:26:35;9.35;;;4.75;;
65759;SDS011;52496;51.082;5.066;2022-07-29T03:29:06;8.95;;;4.70;;
65759;SDS011;52496;51.082;5.066;2022-07-29T03:31:36;11.45;;;4.60;;
65759;SDS011;52496;51.082;5.066;2022-07-29T03:34:07;7.38;;;4.25;;
65759;SDS011;52496;51.082;5.066;2022-07-29T03:36:37;9.07;;;4.32;;
65759;SDS011;52496;51.082;5.066;2022-07-29T03:39:08;11.00;;;4.20;;
65759;SDS011;52496;51.082;5.066;2022-07-29T03:41:40;6.93;;;3.80;;
65759;SDS011;52496;51.082;5.066;2022-07-29T03:44:13;6.65;;;3.50;;
65759;SDS011;52496;51.082;5.066;2022-07-29T03:46:46;7.55;;;4.10;;
65759;SDS011;52496;51.082;5.066;2022-07-29T03:49:18;6.88;;;4.18;;
65759;SDS011;52496;51.082;5.066;2022-07-29T03:51:51;6.32;;;4.10;;
65759;SDS011;52496;51.082;5.066;2022-07-29T03:54:22;7.03;;;3.92;;
65759;SDS011;52496;51.082;5.066;2022-07-29T03:56:52;10.52;;;4.22;;
65759;SDS011;52496;51.082;5.066;2022-07-29T03:59:25;7.95;;;4.20;;
65759;SDS011;52496;51.082;5.066;2022-07-29T04:01:56;6.93;;;3.67;;
65759;SDS011;52496;51.082;5.066;2022-07-29T04:04:27;6.93;;;3.65;;
65759;SDS011;52496;51.082;5.066;2022-07-29T04:06:59;8.40;;;3.90;;
65759;SDS011;52496;51.082;5.066;2022-07-29T04:09:29;8.38;;;4.30;;
65759;SDS011;52496;51.082;5.066;2022-07-29T04:12:00;6.25;;;4.22;;
65759;SDS011;52496;51.082;5.066;2022-07-29T04:14:31;6.03;;;4.00;;
65759;SDS011;52496;51.082;5.066;2022-07-29T04:17:03;7.47;;;4.13;;
65759;SDS011;52496;51.082;5.066;2022-07-29T04:19:34;7.60;;;4.70;;
65759;SDS011;52496;51.082;5.066;2022-07-29T04:22:04;7.30;;;4.88;;
65759;SDS011;52496;51.082;5.066;2022-07-29T04:24:34;6.55;;;4.15;;
65759;SDS011;52496;51.082;5.066;2022-07-29T04:27:05;6.40;;;3.95;;
65759;SDS011;52496;51.082;5.066;2022-07-29T04:29:35;7.28;;;4.65;;
65759;SDS011;52496;51.082;5.066;2022-07-29T04:32:06;8.05;;;4.85;;
65759;SDS011;52496;51.082;5.066;2022-07-29T04:34:36;7.38;;;4.32;;
65759;SDS011;52496;51.082;5.066;2022-07-29T04:37:07;9.43;;;4.32;;
65759;SDS011;52496;51.082;5.066;2022-07-29T04:39:37;8.05;;;4.90;;
65759;SDS011;52496;51.082;5.066;2022-07-29T04:42:08;7.32;;;4.30;;
65759;SDS011;52496;51.082;5.066;2022-07-29T04:44:38;13.55;;;4.50;;
65759;SDS011;52496;51.082;5.066;2022-07-29T04:47:09;6.90;;;5.13;;
65759;SDS011;52496;51.082;5.066;2022-07-29T04:49:39;8.30;;;4.88;;
65759;SDS011;52496;51.082;5.066;2022-07-29T04:52:09;7.28;;;4.43;;
65759;SDS011;52496;51.082;5.066;2022-07-29T04:54:40;8.90;;;4.47;;
65759;SDS011;52496;51.082;5.066;2022-07-29T04:57:10;8.75;;;3.97;;
65759;SDS011;52496;51.082;5.066;2022-07-29T04:59:41;6.25;;;4.25;;
65759;SDS011;52496;51.082;5.066;2022-07-29T05:02:11;9.10;;;4.55;;
65759;SDS011;52496;51.082;5.066;2022-07-29T05:04:42;8.52;;;4.90;;
65759;SDS011;52496;51.082;5.066;2022-07-29T05:07:12;7.90;;;5.40;;
65759;SDS011;52496;51.082;5.066;2022-07-29T05:09:42;8.07;;;4.97;;
65759;SDS011;52496;51.082;5.066;2022-07-29T05:12:13;10.13;;;5.05;;
65759;SDS011;52496;51.082;5.066;2022-07-29T05:14:43;9.02;;;4.78;;
65759;SDS011;52496;51.082;5.066;2022-07-29T05:17:14;7.55;;;5.38;;
65759;SDS011;52496;51.082;5.066;2022-07-29T05:19:44;7.65;;;5.10;;
65759;SDS011;52496;51.082;5.066;2022-07-29T05:22:15;8.70;;;5.05;;
65759;SDS011;52496;51.082;5.066;2022-07-29T05:24:45;13.23;;;5.55;;
65759;SDS011;52496;51.082;5.066;2022-07-29T05:27:16;10.18;;;5.40;;
65759;SDS011;52496;51.082;5.066;2022-07-29T05:29:47;6.65;;;4.03;;
65759;SDS011;52496;51.082;5.066;2022-07-29T05:32:17;11.30;;;5.55;;
65759;SDS011;52496;51.082;5.066;2022-07-29T05:34:48;9.85;;;5.38;;
65759;SDS011;52496;51.082;5.066;2022-07-29T05:37:19;12.15;;;5.53;;
65759;SDS011;52496;51.082;5.066;2022-07-29T05:39:49;9.50;;;5.72;;
65759;SDS011;52496;51.082;5.066;2022-07-29T05:42:20;9.65;;;5.65;;
65759;SDS011;52496;51.082;5.066;2022-07-29T05:44:50;11.52;;;6.20;;
65759;SDS011;52496;51.082;5.066;2022-07-29T05:47:21;8.88;;;5.60;;
65759;SDS011;52496;51.082;5.066;2022-07-29T05:49:52;11.73;;;6.22;;
65759;SDS011;52496;51.082;5.066;2022-07-29T05:52:22;15.23;;;5.47;;
65759;SDS011;52496;51.082;5.066;2022-07-29T05:54:53;12.60;;;5.45;;
65759;SDS011;52496;51.082;5.066;2022-07-29T05:57:24;9.52;;;4.95;;
65759;SDS011;52496;51.082;5.066;2022-07-29T05:59:54;11.82;;;5.10;;
65759;SDS011;52496;51.082;5.066;2022-07-29T06:02:25;7.22;;;4.63;;
65759;SDS011;52496;51.082;5.066;2022-07-29T06:04:55;10.27;;;5.20;;
65759;SDS011;52496;51.082;5.066;2022-07-29T06:07:26;11.48;;;5.03;;
65759;SDS011;52496;51.082;5.066;2022-07-29T06:09:56;7.22;;;5.00;;
65759;SDS011;52496;51.082;5.066;2022-07-29T06:12:26;6.68;;;4.70;;
65759;SDS011;52496;51.082;5.066;2022-07-29T06:14:57;8.52;;;5.15;;
65759;SDS011;52496;51.082;5.066;2022-07-29T06:17:28;6.68;;;4.53;;
65759;SDS011;52496;51.082;5.066;2022-07-29T06:19:58;9.10;;;4.32;;
65759;SDS011;52496;51.082;5.066;2022-07-29T06:22:29;11.43;;;6.10;;
65759;SDS011;52496;51.082;5.066;2022-07-29T06:25:00;8.95;;;5.93;;
65759;SDS011;52496;51.082;5.066;2022-07-29T06:27:32;10.52;;;5.60;;
65759;SDS011;52496;51.082;5.066;2022-07-29T06:30:03;9.75;;;5.47;;
65759;SDS011;52496;51.082;5.066;2022-07-29T06:32:37;10.93;;;5.53;;
65759;SDS011;52496;51.082;5.066;2022-07-29T06:35:08;17.40;;;6.43;;
65759;SDS011;52496;51.082;5.066;2022-07-29T06:37:38;10.13;;;5.28;;
65759;SDS011;52496;51.082;5.066;2022-07-29T06:40:09;7.70;;;4.85;;
65759;SDS011;52496;51.082;5.066;2022-07-29T06:42:59;9.80;;;5.53;;
65759;SDS011;52496;51.082;5.066;2022-07-29T06:45:30;9.38;;;5.57;;
65759;SDS011;52496;51.082;5.066;2022-07-29T06:48:04;11.52;;;4.82;;
65759;SDS011;52496;51.082;5.066;2022-07-29T06:50:34;10.02;;;5.32;;
65759;SDS011;52496;51.082;5.066;2022-07-29T06:53:05;8.52;;;5.15;;
65759;SDS011;52496;51.082;5.066;2022-07-29T06:55:35;7.20;;;5.07;;
65759;SDS011;52496;51.082;5.066;2022-07-29T06:58:07;9.00;;;5.15;;
65759;SDS011;52496;51.082;5.066;2022-07-29T07:00:37;12.57;;;5.75;;
65759;SDS011;52496;51.082;5.066;2022-07-29T07:03:08;9.50;;;5.70;;
65759;SDS011;52496;51.082;5.066;2022-07-29T07:05:38;10.50;;;6.43;;
65759;SDS011;52496;51.082;5.066;2022-07-29T07:08:09;8.23;;;5.25;;
65759;SDS011;52496;51.082;5.066;2022-07-29T07:10:40;11.45;;;5.18;;
65759;SDS011;52496;51.082;5.066;2022-07-29T07:13:10;8.32;;;4.97;;
65759;SDS011;52496;51.082;5.066;2022-07-29T07:15:42;8.88;;;5.22;;
65759;SDS011;52496;51.082;5.066;2022-07-29T07:18:14;12.75;;;4.50;;
65759;SDS011;52496;51.082;5.066;2022-07-29T07:20:46;6.50;;;4.47;;
65759;SDS011;52496;51.082;5.066;2022-07-29T07:23:17;11.00;;;5.70;;
65759;SDS011;52496;51.082;5.066;2022-07-29T07:25:47;8.80;;;5.50;;
65759;SDS011;52496;51.082;5.066;2022-07-29T07:28:18;9.23;;;4.75;;
65759;SDS011;52496;51.082;5.066;2022-07-29T07:30:49;7.68;;;5.10;;
65759;SDS011;52496;51.082;5.066;2022-07-29T07:33:19;7.30;;;4.60;;
65759;SDS011;52496;51.082;5.066;2022-07-29T07:35:50;8.98;;;4.80;;
65759;SDS011;52496;51.082;5.066;2022-07-29T07:38:20;8.15;;;4.60;;
65759;SDS011;52496;51.082;5.066;2022-07-29T07:40:50;7.63;;;4.57;;
65759;SDS011;52496;51.082;5.066;2022-07-29T07:43:21;9.70;;;4.65;;
65759;SDS011;52496;51.082;5.066;2022-07-29T07:45:52;8.68;;;4.82;;
65759;SDS011;52496;51.082;5.066;2022-07-29T07:48:22;9.05;;;4.75;;
65759;SDS011;52496;51.082;5.066;2022-07-29T07:50:53;7.60;;;4.43;;
65759;SDS011;52496;51.082;5.066;2022-07-29T07:53:23;6.43;;;4.30;;
65759;SDS011;52496;51.082;5.066;2022-07-29T07:55:54;6.80;;;4.25;;
65759;SDS011;52496;51.082;5.066;2022-07-29T07:58:24;7.75;;;3.85;;
65759;SDS011;52496;51.082;5.066;2022-07-29T08:00:55;8.73;;;4.70;;
65759;SDS011;52496;51.082;5.066;2022-07-29T08:03:25;9.30;;;4.93;;
65759;SDS011;52496;51.082;5.066;2022-07-29T08:05:56;7.28;;;4.32;;
65759;SDS011;52496;51.082;5.066;2022-07-29T08:08:27;6.88;;;4.68;;
65759;SDS011;52496;51.082;5.066;2022-07-29T08:10:57;6.93;;;4.15;;
65759;SDS011;52496;51.082;5.066;2022-07-29T08:13:28;7.43;;;4.35;;
65759;SDS011;52496;51.082;5.066;2022-07-29T08:16:00;7.95;;;4.45;;
65759;SDS011;52496;51.082;5.066;2022-07-29T08:18:31;8.40;;;4.15;;
65759;SDS011;52496;51.082;5.066;2022-07-29T08:21:02;9.27;;;4.75;;
65759;SDS011;52496;51.082;5.066;2022-07-29T08:23:32;6.68;;;4.40;;
65759;SDS011;52496;51.082;5.066;2022-07-29T08:26:09;7.90;;;4.30;;
65759;SDS011;52496;51.082;5.066;2022-07-29T08:28:43;7.97;;;4.00;;
65759;SDS011;52496;51.082;5.066;2022-07-29T08:31:15;7.93;;;3.83;;
65759;SDS011;52496;51.082;5.066;2022-07-29T08:33:46;6.65;;;4.30;;
65759;SDS011;52496;51.082;5.066;2022-07-29T08:36:16;6.95;;;4.38;;
65759;SDS011;52496;51.082;5.066;2022-07-29T08:38:47;7.72;;;4.40;;
65759;SDS011;52496;51.082;5.066;2022-07-29T08:41:19;8.60;;;4.57;;
65759;SDS011;52496;51.082;5.066;2022-07-29T08:43:50;8.15;;;3.53;;
65759;SDS011;52496;51.082;5.066;2022-07-29T08:46:21;6.57;;;3.78;;
65759;SDS011;52496;51.082;5.066;2022-07-29T08:48:52;7.47;;;3.80;;
65759;SDS011;52496;51.082;5.066;2022-07-29T08:51:22;7.30;;;3.75;;
65759;SDS011;52496;51.082;5.066;2022-07-29T08:53:56;7.72;;;3.78;;
65759;SDS011;52496;51.082;5.066;2022-07-29T08:56:27;5.72;;;3.42;;
65759;SDS011;52496;51.082;5.066;2022-07-29T08:58:58;5.40;;;3.00;;
65759;SDS011;52496;51.082;5.066;2022-07-29T09:01:33;8.23;;;3.42;;
65759;SDS011;52496;51.082;5.066;2022-07-29T09:04:08;5.22;;;2.70;;
65759;SDS011;52496;51.082;5.066;2022-07-29T09:06:42;7.80;;;3.40;;
65759;SDS011;52496;51.082;5.066;2022-07-29T09:09:15;5.68;;;3.00;;
65759;SDS011;52496;51.082;5.066;2022-07-29T09:11:45;6.03;;;3.50;;
65759;SDS011;52496;51.082;5.066;2022-07-29T09:14:16;6.45;;;3.40;;
65759;SDS011;52496;51.082;5.066;2022-07-29T09:16:48;8.57;;;4.00;;
65759;SDS011;52496;51.082;5.066;2022-07-29T09:19:30;8.75;;;3.70;;
65759;SDS011;52496;51.082;5.066;2022-07-29T09:22:05;8.10;;;3.90;;
65759;SDS011;52496;51.082;5.066;2022-07-29T09:24:43;5.90;;;3.30;;
65759;SDS011;52496;51.082;5.066;2022-07-29T09:27:20;5.80;;;3.00;;
65759;SDS011;52496;51.082;5.066;2022-07-29T09:30:10;7.43;;;3.40;;
65759;SDS011;52496;51.082;5.066;2022-07-29T09:33:00;6.15;;;3.05;;
65759;SDS011;52496;51.082;5.066;2022-07-29T09:35:33;8.52;;;3.20;;
65759;SDS011;52496;51.082;5.066;2022-07-29T09:38:11;5.70;;;3.10;;
65759;SDS011;52496;51.082;5.066;2022-07-29T09:40:42;5.40;;;2.80;;
65759;SDS011;52496;51.082;5.066;2022-07-29T09:43:27;6.18;;;3.50;;
65759;SDS011;52496;51.082;5.066;2022-07-29T09:46:09;4.80;;;3.30;;
65759;SDS011;52496;51.082;5.066;2022-07-29T09:48:41;6.60;;;3.17;;
65759;SDS011;52496;51.082;5.066;2022-07-29T09:51:20;4.88;;;2.85;;
65759;SDS011;52496;51.082;5.066;2022-07-29T09:53:51;6.53;;;3.20;;
65759;SDS011;52496;51.082;5.066;2022-07-29T09:56:37;6.20;;;3.00;;
65759;SDS011;52496;51.082;5.066;2022-07-29T09:59:09;8.98;;;3.20;;
65759;SDS011;52496;51.082;5.066;2022-07-29T10:01:42;5.38;;;2.63;;
65759;SDS011;52496;51.082;5.066;2022-07-29T10:04:13;7.10;;;2.95;;
65759;SDS011;52496;51.082;5.066;2022-07-29T10:07:00;8.10;;;2.72;;
65759;SDS011;52496;51.082;5.066;2022-07-29T10:09:35;4.00;;;2.28;;
65759;SDS011;52496;51.082;5.066;2022-07-29T10:12:10;6.18;;;2.80;;
65759;SDS011;52496;51.082;5.066;2022-07-29T10:14:43;5.75;;;2.70;;
65759;SDS011;52496;51.082;5.066;2022-07-29T10:17:14;5.97;;;2.65;;
65759;SDS011;52496;51.082;5.066;2022-07-29T10:19:46;7.03;;;2.95;;
65759;SDS011;52496;51.082;5.066;2022-07-29T10:22:19;3.85;;;2.40;;
65759;SDS011;52496;51.082;5.066;2022-07-29T10:24:50;6.68;;;2.53;;
65759;SDS011;52496;51.082;5.066;2022-07-29T10:27:20;5.55;;;2.72;;
65759;SDS011;52496;51.082;5.066;2022-07-29T10:29:51;4.50;;;2.22;;
65759;SDS011;52496;51.082;5.066;2022-07-29T10:35:21;5.28;;;2.30;;
65759;SDS011;52496;51.082;5.066;2022-07-29T10:38:24;7.95;;;2.60;;
65759;SDS011;52496;51.082;5.066;2022-07-29T10:41:02;3.67;;;2.10;;
65759;SDS011;52496;51.082;5.066;2022-07-29T10:44:01;5.25;;;2.30;;
65759;SDS011;52496;51.082;5.066;2022-07-29T10:46:36;7.07;;;2.70;;
65759;SDS011;52496;51.082;5.066;2022-07-29T10:49:11;4.80;;;2.80;;
65759;SDS011;52496;51.082;5.066;2022-07-29T10:59:50;5.80;;;2.40;;
65759;SDS011;52496;51.082;5.066;2022-07-29T11:02:41;4.85;;;2.35;;
65759;SDS011;52496;51.082;5.066;2022-07-29T11:05:17;5.25;;;2.70;;
65759;SDS011;52496;51.082;5.066;2022-07-29T11:11:30;4.13;;;2.30;;
65759;SDS011;52496;51.082;5.066;2022-07-29T11:13:50;7.63;;;2.28;;
65759;SDS011;52496;51.082;5.066;2022-07-29T11:16:22;6.82;;;2.50;;
65759;SDS011;52496;51.082;5.066;2022-07-29T11:21:42;5.13;;;2.63;;
65759;SDS011;52496;51.082;5.066;2022-07-29T11:24:20;5.35;;;2.35;;
65759;SDS011;52496;51.082;5.066;2022-07-29T11:27:09;5.38;;;2.28;;
65759;SDS011;52496;51.082;5.066;2022-07-29T11:29:53;4.55;;;2.25;;
65759;SDS011;52496;51.082;5.066;2022-07-29T11:32:52;5.40;;;2.25;;
65759;SDS011;52496;51.082;5.066;2022-07-29T11:35:22;6.72;;;2.75;;
65759;SDS011;52496;51.082;5.066;2022-07-29T11:49:12;5.38;;;2.45;;
65759;SDS011;52496;51.082;5.066;2022-07-29T11:51:55;8.25;;;2.47;;
65759;SDS011;52496;51.082;5.066;2022-07-29T11:54:33;5.63;;;2.58;;
65759;SDS011;52496;51.082;5.066;2022-07-29T11:57:06;7.15;;;2.85;;
65759;SDS011;52496;51.082;5.066;2022-07-29T11:59:40;6.07;;;2.40;;
65759;SDS011;52496;51.082;5.066;2022-07-29T12:02:14;6.22;;;2.90;;
65759;SDS011;52496;51.082;5.066;2022-07-29T12:04:52;6.75;;;2.50;;
65759;SDS011;52496;51.082;5.066;2022-07-29T12:07:30;5.38;;;2.47;;
65759;SDS011;52496;51.082;5.066;2022-07-29T12:10:03;3.60;;;2.00;;
65759;SDS011;52496;51.082;5.066;2022-07-29T12:12:35;4.70;;;2.35;;
65759;SDS011;52496;51.082;5.066;2022-07-29T12:15:12;5.35;;;2.40;;
65759;SDS011;52496;51.082;5.066;2022-07-29T12:17:50;5.68;;;2.30;;
65759;SDS011;52496;51.082;5.066;2022-07-29T12:20:22;6.43;;;2.42;;
65759;SDS011;52496;51.082;5.066;2022-07-29T12:22:57;10.00;;;2.38;;
65759;SDS011;52496;51.082;5.066;2022-07-29T12:25:27;8.75;;;2.85;;
65759;SDS011;52496;51.082;5.066;2022-07-29T12:28:05;5.72;;;2.38;;
65759;SDS011;52496;51.082;5.066;2022-07-29T12:30:40;5.95;;;2.55;;
65759;SDS011;52496;51.082;5.066;2022-07-29T12:36:01;5.75;;;2.38;;
65759;SDS011;52496;51.082;5.066;2022-07-29T12:38:34;6.85;;;2.40;;
65759;SDS011;52496;51.082;5.066;2022-07-29T12:41:06;11.13;;;2.38;;
65759;SDS011;52496;51.082;5.066;2022-07-29T12:43:37;5.93;;;2.22;;
65759;SDS011;52496;51.082;5.066;2022-07-29T12:46:12;6.13;;;2.20;;
65759;SDS011;52496;51.082;5.066;2022-07-29T12:48:44;7.65;;;2.80;;
65759;SDS011;52496;51.082;5.066;2022-07-29T12:51:15;5.28;;;2.20;;
65759;SDS011;52496;51.082;5.066;2022-07-29T12:56:58;7.18;;;2.40;;
65759;SDS011;52496;51.082;5.066;2022-07-29T12:59:29;5.22;;;2.20;;
65759;SDS011;52496;51.082;5.066;2022-07-29T13:01:59;5.40;;;2.50;;
65759;SDS011;52496;51.082;5.066;2022-07-29T13:04:31;4.55;;;2.10;;
65759;SDS011;52496;51.082;5.066;2022-07-29T13:07:06;5.47;;;2.05;;
65759;SDS011;52496;51.082;5.066;2022-07-29T13:09:38;6.38;;;2.67;;
65759;SDS011;52496;51.082;5.066;2022-07-29T13:12:11;8.15;;;2.33;;
65759;SDS011;52496;51.082;5.066;2022-07-29T13:17:18;6.20;;;2.47;;
65759;SDS011;52496;51.082;5.066;2022-07-29T13:20:04;5.50;;;2.30;;
65759;SDS011;52496;51.082;5.066;2022-07-29T13:22:36;5.28;;;2.08;;
65759;SDS011;52496;51.082;5.066;2022-07-29T13:25:06;4.68;;;2.10;;
65759;SDS011;52496;51.082;5.066;2022-07-29T13:27:37;5.63;;;2.22;;
65759;SDS011;52496;51.082;5.066;2022-07-29T13:30:09;4.05;;;2.08;;
65759;SDS011;52496;51.082;5.066;2022-07-29T13:32:40;4.25;;;2.30;;
65759;SDS011;52496;51.082;5.066;2022-07-29T13:35:11;8.68;;;2.40;;
65759;SDS011;52496;51.082;5.066;2022-07-29T13:37:43;5.63;;;2.08;;
65759;SDS011;52496;51.082;5.066;2022-07-29T13:40:14;7.53;;;2.40;;
65759;SDS011;52496;51.082;5.066;2022-07-29T13:42:44;5.18;;;2.40;;
65759;SDS011;52496;51.082;5.066;2022-07-29T13:45:15;3.40;;;2.08;;
65759;SDS011;52496;51.082;5.066;2022-07-29T13:47:45;6.78;;;2.50;;
65759;SDS011;52496;51.082;5.066;2022-07-29T13:50:16;7.10;;;2.33;;
65759;SDS011;52496;51.082;5.066;2022-07-29T13:52:46;4.65;;;2.13;;
65759;SDS011;52496;51.082;5.066;2022-07-29T13:55:18;4.63;;;2.33;;
65759;SDS011;52496;51.082;5.066;2022-07-29T13:57:49;6.70;;;2.28;;
65759;SDS011;52496;51.082;5.066;2022-07-29T14:00:20;6.72;;;2.50;;
65759;SDS011;52496;51.082;5.066;2022-07-29T14:02:51;3.85;;;2.17;;
65759;SDS011;52496;51.082;5.066;2022-07-29T14:05:22;5.43;;;2.58;;
65759;SDS011;52496;51.082;5.066;2022-07-29T14:07:52;5.25;;;2.20;;
65759;SDS011;52496;51.082;5.066;2022-07-29T14:10:22;4.65;;;2.30;;
65759;SDS011;52496;51.082;5.066;2022-07-29T14:12:53;6.10;;;2.58;;
65759;SDS011;52496;51.082;5.066;2022-07-29T14:15:23;4.07;;;2.10;;
65759;SDS011;52496;51.082;5.066;2022-07-29T14:17:54;3.72;;;2.20;;
65759;SDS011;52496;51.082;5.066;2022-07-29T14:20:24;5.95;;;2.30;;
65759;SDS011;52496;51.082;5.066;2022-07-29T14:22:55;7.90;;;2.67;;
65759;SDS011;52496;51.082;5.066;2022-07-29T14:25:26;8.88;;;2.53;;
65759;SDS011;52496;51.082;5.066;2022-07-29T14:27:56;4.70;;;2.40;;
65759;SDS011;52496;51.082;5.066;2022-07-29T14:30:27;5.85;;;2.42;;
65759;SDS011;52496;51.082;5.066;2022-07-29T14:32:57;6.07;;;2.50;;
65759;SDS011;52496;51.082;5.066;2022-07-29T14:35:27;5.20;;;2.45;;
65759;SDS011;52496;51.082;5.066;2022-07-29T14:37:58;4.82;;;2.47;;
65759;SDS011;52496;51.082;5.066;2022-07-29T14:40:28;6.40;;;2.10;;
65759;SDS011;52496;51.082;5.066;2022-07-29T14:42:59;5.45;;;2.40;;
65759;SDS011;52496;51.082;5.066;2022-07-29T14:45:29;7.38;;;2.60;;
65759;SDS011;52496;51.082;5.066;2022-07-29T14:48:00;4.93;;;2.25;;
65759;SDS011;52496;51.082;5.066;2022-07-29T14:50:30;4.25;;;2.28;;
65759;SDS011;52496;51.082;5.066;2022-07-29T14:53:01;8.13;;;2.38;;
65759;SDS011;52496;51.082;5.066;2022-07-29T14:55:32;6.40;;;2.17;;
65759;SDS011;52496;51.082;5.066;2022-07-29T14:58:02;3.97;;;2.30;;
65759;SDS011;52496;51.082;5.066;2022-07-29T15:00:33;8.15;;;2.17;;
65759;SDS011;52496;51.082;5.066;2022-07-29T15:03:03;4.57;;;2.20;;
65759;SDS011;52496;51.082;5.066;2022-07-29T15:05:35;6.65;;;2.72;;
65759;SDS011;52496;51.082;5.066;2022-07-29T15:08:05;6.68;;;2.35;;
65759;SDS011;52496;51.082;5.066;2022-07-29T15:10:38;4.22;;;2.35;;
65759;SDS011;52496;51.082;5.066;2022-07-29T15:13:08;4.35;;;2.10;;
65759;SDS011;52496;51.082;5.066;2022-07-29T15:15:38;4.97;;;2.30;;
65759;SDS011;52496;51.082;5.066;2022-07-29T15:18:09;4.75;;;2.47;;
65759;SDS011;52496;51.082;5.066;2022-07-29T15:20:39;5.95;;;2.40;;
65759;SDS011;52496;51.082;5.066;2022-07-29T15:23:10;6.38;;;2.30;;
65759;SDS011;52496;51.082;5.066;2022-07-29T15:25:42;3.80;;;2.00;;
65759;SDS011;52496;51.082;5.066;2022-07-29T15:28:12;7.93;;;3.22;;
65759;SDS011;52496;51.082;5.066;2022-07-29T15:30:43;5.57;;;2.35;;
65759;SDS011;52496;51.082;5.066;2022-07-29T15:33:13;4.47;;;2.47;;
65759;SDS011;52496;51.082;5.066;2022-07-29T15:35:44;6.32;;;2.22;;
65759;SDS011;52496;51.082;5.066;2022-07-29T15:38:15;5.07;;;2.30;;
65759;SDS011;52496;51.082;5.066;2022-07-29T15:40:45;5.85;;;2.30;;
65759;SDS011;52496;51.082;5.066;2022-07-29T15:43:16;6.95;;;2.20;;
65759;SDS011;52496;51.082;5.066;2022-07-29T15:45:46;5.93;;;2.40;;
65759;SDS011;52496;51.082;5.066;2022-07-29T15:48:37;4.75;;;2.20;;
65759;SDS011;52496;51.082;5.066;2022-07-29T15:51:08;4.90;;;2.25;;
65759;SDS011;52496;51.082;5.066;2022-07-29T15:53:38;5.03;;;2.33;;
65759;SDS011;52496;51.082;5.066;2022-07-29T15:56:09;6.47;;;2.50;;
65759;SDS011;52496;51.082;5.066;2022-07-29T15:58:39;5.57;;;2.10;;
65759;SDS011;52496;51.082;5.066;2022-07-29T16:01:10;6.60;;;2.40;;